sensor_id;sensor_type;location;lat;lon;timestamp;P1;durP1;ratioP1;P2;durP2;ratioP2
73158;SDS011;61370;48.594;10.202;2022-07-23T00:00:04;6.38;;;4.38;;
73158;SDS011;61370;48.594;10.202;2022-07-23T00:02:52;12.77;;;4.38;;
73158;SDS011;61370;48.594;10.202;2022-07-23T00:05:19;6.88;;;4.32;;
73158;SDS011;61370;48.594;10.202;2022-07-23T00:07:45;5.10;;;4.00;;
73158;SDS011;61370;48.594;10.202;2022-07-23T00:10:12;6.22;;;3.92;;
73158;SDS011;61370;48.594;10.202;2022-07-23T00:12:38;4.88;;;3.67;;
73158;SDS011;61370;48.594;10.202;2022-07-23T00:15:06;6.68;;;4.00;;
73158;SDS011;61370;48.594;10.202;2022-07-23T00:17:33;7.03;;;4.30;;
73158;SDS011;61370;48.594;10.202;2022-07-23T00:19:59;6.18;;;3.65;;
73158;SDS011;61370;48.594;10.202;2022-07-23T00:22:26;5.80;;;3.95;;
73158;SDS011;61370;48.594;10.202;2022-07-23T00:24:55;6.30;;;3.65;;
73158;SDS011;61370;48.594;10.202;2022-07-23T00:27:22;8.02;;;4.00;;
73158;SDS011;61370;48.594;10.202;2022-07-23T00:29:49;5.25;;;3.53;;
73158;SDS011;61370;48.594;10.202;2022-07-23T00:32:15;6.70;;;3.78;;
73158;SDS011;61370;48.594;10.202;2022-07-23T00:34:42;7.18;;;3.88;;
73158;SDS011;61370;48.594;10.202;2022-07-23T00:37:08;5.90;;;4.20;;
73158;SDS011;61370;48.594;10.202;2022-07-23T00:39:35;6.22;;;4.13;;
73158;SDS011;61370;48.594;10.202;2022-07-23T00:42:01;7.97;;;4.38;;
73158;SDS011;61370;48.594;10.202;2022-07-23T00:44:28;6.75;;;4.13;;
73158;SDS011;61370;48.594;10.202;2022-07-23T00:46:58;6.85;;;3.67;;
73158;SDS011;61370;48.594;10.202;2022-07-23T00:49:26;7.10;;;4.28;;
73158;SDS011;61370;48.594;10.202;2022-07-23T00:51:54;6.40;;;4.03;;
73158;SDS011;61370;48.594;10.202;2022-07-23T00:54:25;8.52;;;4.25;;
73158;SDS011;61370;48.594;10.202;2022-07-23T00:56:52;6.18;;;4.18;;
73158;SDS011;61370;48.594;10.202;2022-07-23T00:59:19;6.47;;;4.80;;
73158;SDS011;61370;48.594;10.202;2022-07-23T01:01:46;8.15;;;5.18;;
73158;SDS011;61370;48.594;10.202;2022-07-23T01:04:15;6.70;;;4.65;;
73158;SDS011;61370;48.594;10.202;2022-07-23T01:06:42;6.50;;;4.70;;
73158;SDS011;61370;48.594;10.202;2022-07-23T01:09:10;7.75;;;4.53;;
73158;SDS011;61370;48.594;10.202;2022-07-23T01:11:37;6.28;;;4.47;;
73158;SDS011;61370;48.594;10.202;2022-07-23T01:14:10;7.10;;;5.07;;
73158;SDS011;61370;48.594;10.202;2022-07-23T01:16:42;7.07;;;4.78;;
73158;SDS011;61370;48.594;10.202;2022-07-23T01:19:09;7.40;;;4.40;;
73158;SDS011;61370;48.594;10.202;2022-07-23T01:21:37;7.93;;;4.65;;
73158;SDS011;61370;48.594;10.202;2022-07-23T01:24:06;8.45;;;5.20;;
73158;SDS011;61370;48.594;10.202;2022-07-23T01:26:37;6.50;;;4.85;;
73158;SDS011;61370;48.594;10.202;2022-07-23T01:29:04;8.35;;;4.68;;
73158;SDS011;61370;48.594;10.202;2022-07-23T01:31:31;8.32;;;5.05;;
73158;SDS011;61370;48.594;10.202;2022-07-23T01:33:58;8.30;;;5.30;;
73158;SDS011;61370;48.594;10.202;2022-07-23T01:36:24;7.55;;;5.55;;
73158;SDS011;61370;48.594;10.202;2022-07-23T01:38:51;6.47;;;5.13;;
73158;SDS011;61370;48.594;10.202;2022-07-23T01:41:18;8.40;;;4.72;;
73158;SDS011;61370;48.594;10.202;2022-07-23T01:43:45;6.78;;;4.80;;
73158;SDS011;61370;48.594;10.202;2022-07-23T01:46:11;7.57;;;4.70;;
73158;SDS011;61370;48.594;10.202;2022-07-23T01:48:42;9.63;;;5.72;;
73158;SDS011;61370;48.594;10.202;2022-07-23T01:51:27;8.60;;;5.47;;
73158;SDS011;61370;48.594;10.202;2022-07-23T01:54:01;8.32;;;6.03;;
73158;SDS011;61370;48.594;10.202;2022-07-23T01:56:27;8.90;;;6.05;;
73158;SDS011;61370;48.594;10.202;2022-07-23T01:58:54;8.82;;;5.45;;
73158;SDS011;61370;48.594;10.202;2022-07-23T02:01:21;7.93;;;5.40;;
73158;SDS011;61370;48.594;10.202;2022-07-23T02:03:48;8.00;;;6.03;;
73158;SDS011;61370;48.594;10.202;2022-07-23T02:06:14;7.88;;;5.10;;
73158;SDS011;61370;48.594;10.202;2022-07-23T02:08:41;9.90;;;5.45;;
73158;SDS011;61370;48.594;10.202;2022-07-23T02:11:08;7.30;;;5.72;;
73158;SDS011;61370;48.594;10.202;2022-07-23T02:13:34;9.25;;;6.28;;
73158;SDS011;61370;48.594;10.202;2022-07-23T02:16:01;8.15;;;5.65;;
73158;SDS011;61370;48.594;10.202;2022-07-23T02:18:29;7.93;;;5.55;;
73158;SDS011;61370;48.594;10.202;2022-07-23T02:20:55;8.45;;;5.53;;
73158;SDS011;61370;48.594;10.202;2022-07-23T02:23:21;7.68;;;5.60;;
73158;SDS011;61370;48.594;10.202;2022-07-23T02:25:48;8.50;;;5.82;;
73158;SDS011;61370;48.594;10.202;2022-07-23T02:28:15;7.32;;;5.45;;
73158;SDS011;61370;48.594;10.202;2022-07-23T02:30:42;8.93;;;5.70;;
73158;SDS011;61370;48.594;10.202;2022-07-23T02:33:09;8.35;;;6.07;;
73158;SDS011;61370;48.594;10.202;2022-07-23T02:35:36;7.72;;;5.55;;
73158;SDS011;61370;48.594;10.202;2022-07-23T02:38:03;9.45;;;5.82;;
73158;SDS011;61370;48.594;10.202;2022-07-23T02:40:31;7.70;;;5.95;;
73158;SDS011;61370;48.594;10.202;2022-07-23T02:42:58;9.38;;;6.00;;
73158;SDS011;61370;48.594;10.202;2022-07-23T02:45:24;9.48;;;6.22;;
73158;SDS011;61370;48.594;10.202;2022-07-23T02:47:52;8.98;;;6.32;;
73158;SDS011;61370;48.594;10.202;2022-07-23T02:50:18;8.18;;;5.97;;
73158;SDS011;61370;48.594;10.202;2022-07-23T02:52:45;9.35;;;6.32;;
73158;SDS011;61370;48.594;10.202;2022-07-23T02:55:12;9.00;;;7.20;;
73158;SDS011;61370;48.594;10.202;2022-07-23T02:57:38;8.77;;;6.10;;
73158;SDS011;61370;48.594;10.202;2022-07-23T03:00:05;9.13;;;6.30;;
73158;SDS011;61370;48.594;10.202;2022-07-23T03:02:32;7.93;;;6.22;;
73158;SDS011;61370;48.594;10.202;2022-07-23T03:04:59;9.77;;;6.72;;
73158;SDS011;61370;48.594;10.202;2022-07-23T03:07:26;9.77;;;6.72;;
73158;SDS011;61370;48.594;10.202;2022-07-23T03:09:53;11.18;;;6.70;;
73158;SDS011;61370;48.594;10.202;2022-07-23T03:12:20;10.75;;;6.80;;
73158;SDS011;61370;48.594;10.202;2022-07-23T03:14:47;11.98;;;6.53;;
73158;SDS011;61370;48.594;10.202;2022-07-23T03:17:14;10.70;;;6.72;;
73158;SDS011;61370;48.594;10.202;2022-07-23T03:19:40;9.55;;;6.57;;
73158;SDS011;61370;48.594;10.202;2022-07-23T03:22:08;10.15;;;7.10;;
73158;SDS011;61370;48.594;10.202;2022-07-23T03:24:35;11.60;;;7.45;;
73158;SDS011;61370;48.594;10.202;2022-07-23T03:27:22;11.73;;;6.50;;
73158;SDS011;61370;48.594;10.202;2022-07-23T03:29:50;10.07;;;6.80;;
73158;SDS011;61370;48.594;10.202;2022-07-23T03:32:18;11.38;;;7.03;;
73158;SDS011;61370;48.594;10.202;2022-07-23T03:34:45;9.55;;;6.97;;
73158;SDS011;61370;48.594;10.202;2022-07-23T03:37:12;9.27;;;7.00;;
73158;SDS011;61370;48.594;10.202;2022-07-23T03:39:39;11.32;;;7.13;;
73158;SDS011;61370;48.594;10.202;2022-07-23T03:42:06;12.48;;;7.30;;
73158;SDS011;61370;48.594;10.202;2022-07-23T03:44:33;9.68;;;7.47;;
73158;SDS011;61370;48.594;10.202;2022-07-23T03:47:02;11.65;;;7.72;;
73158;SDS011;61370;48.594;10.202;2022-07-23T03:49:29;10.55;;;6.95;;
73158;SDS011;61370;48.594;10.202;2022-07-23T03:51:56;10.48;;;7.85;;
73158;SDS011;61370;48.594;10.202;2022-07-23T03:54:22;10.48;;;7.07;;
73158;SDS011;61370;48.594;10.202;2022-07-23T03:56:49;12.85;;;7.68;;
73158;SDS011;61370;48.594;10.202;2022-07-23T03:59:15;11.18;;;7.82;;
73158;SDS011;61370;48.594;10.202;2022-07-23T04:01:42;10.15;;;7.60;;
73158;SDS011;61370;48.594;10.202;2022-07-23T04:04:09;10.90;;;7.50;;
73158;SDS011;61370;48.594;10.202;2022-07-23T04:06:37;10.90;;;7.78;;
73158;SDS011;61370;48.594;10.202;2022-07-23T04:09:04;9.32;;;6.72;;
73158;SDS011;61370;48.594;10.202;2022-07-23T04:11:32;11.70;;;7.60;;
73158;SDS011;61370;48.594;10.202;2022-07-23T04:13:59;11.35;;;7.97;;
73158;SDS011;61370;48.594;10.202;2022-07-23T04:16:25;10.00;;;7.30;;
73158;SDS011;61370;48.594;10.202;2022-07-23T04:18:51;12.10;;;7.88;;
73158;SDS011;61370;48.594;10.202;2022-07-23T04:21:21;11.25;;;7.60;;
73158;SDS011;61370;48.594;10.202;2022-07-23T04:23:48;11.65;;;8.50;;
73158;SDS011;61370;48.594;10.202;2022-07-23T04:26:15;10.18;;;7.50;;
73158;SDS011;61370;48.594;10.202;2022-07-23T04:28:42;11.65;;;7.45;;
73158;SDS011;61370;48.594;10.202;2022-07-23T04:31:08;13.07;;;7.65;;
73158;SDS011;61370;48.594;10.202;2022-07-23T04:33:37;10.65;;;7.50;;
73158;SDS011;61370;48.594;10.202;2022-07-23T04:36:06;10.25;;;7.30;;
73158;SDS011;61370;48.594;10.202;2022-07-23T04:38:32;10.50;;;6.78;;
73158;SDS011;61370;48.594;10.202;2022-07-23T04:41:02;12.52;;;7.45;;
73158;SDS011;61370;48.594;10.202;2022-07-23T04:43:28;11.55;;;7.90;;
73158;SDS011;61370;48.594;10.202;2022-07-23T04:45:55;10.63;;;8.13;;
73158;SDS011;61370;48.594;10.202;2022-07-23T04:48:21;11.93;;;7.53;;
73158;SDS011;61370;48.594;10.202;2022-07-23T04:50:54;10.35;;;7.50;;
73158;SDS011;61370;48.594;10.202;2022-07-23T04:53:24;10.10;;;6.97;;
73158;SDS011;61370;48.594;10.202;2022-07-23T04:55:53;12.32;;;7.88;;
73158;SDS011;61370;48.594;10.202;2022-07-23T04:58:20;11.52;;;8.20;;
73158;SDS011;61370;48.594;10.202;2022-07-23T05:00:47;12.43;;;8.48;;
73158;SDS011;61370;48.594;10.202;2022-07-23T05:03:13;13.52;;;8.38;;
73158;SDS011;61370;48.594;10.202;2022-07-23T05:05:40;10.35;;;7.50;;
73158;SDS011;61370;48.594;10.202;2022-07-23T05:08:13;10.73;;;7.05;;
73158;SDS011;61370;48.594;10.202;2022-07-23T05:10:41;10.63;;;7.22;;
73158;SDS011;61370;48.594;10.202;2022-07-23T05:13:08;9.70;;;7.22;;
73158;SDS011;61370;48.594;10.202;2022-07-23T05:15:34;11.98;;;7.47;;
73158;SDS011;61370;48.594;10.202;2022-07-23T05:18:02;10.13;;;6.93;;
73158;SDS011;61370;48.594;10.202;2022-07-23T05:20:28;10.57;;;7.13;;
73158;SDS011;61370;48.594;10.202;2022-07-23T05:22:55;12.18;;;7.20;;
73158;SDS011;61370;48.594;10.202;2022-07-23T05:25:21;10.70;;;7.28;;
73158;SDS011;61370;48.594;10.202;2022-07-23T05:27:48;9.68;;;7.63;;
73158;SDS011;61370;48.594;10.202;2022-07-23T05:30:15;11.00;;;8.35;;
73158;SDS011;61370;48.594;10.202;2022-07-23T05:32:44;10.60;;;7.18;;
73158;SDS011;61370;48.594;10.202;2022-07-23T05:35:15;11.82;;;7.10;;
73158;SDS011;61370;48.594;10.202;2022-07-23T05:37:47;13.90;;;7.22;;
73158;SDS011;61370;48.594;10.202;2022-07-23T05:40:13;9.88;;;6.63;;
73158;SDS011;61370;48.594;10.202;2022-07-23T05:42:40;9.43;;;7.28;;
73158;SDS011;61370;48.594;10.202;2022-07-23T05:45:08;10.45;;;7.38;;
73158;SDS011;61370;48.594;10.202;2022-07-23T05:47:39;11.93;;;6.82;;
73158;SDS011;61370;48.594;10.202;2022-07-23T05:50:10;9.82;;;6.90;;
73158;SDS011;61370;48.594;10.202;2022-07-23T05:52:44;8.77;;;6.25;;
73158;SDS011;61370;48.594;10.202;2022-07-23T05:55:29;10.52;;;6.70;;
73158;SDS011;61370;48.594;10.202;2022-07-23T05:57:58;10.65;;;6.97;;
73158;SDS011;61370;48.594;10.202;2022-07-23T06:00:25;11.93;;;7.68;;
73158;SDS011;61370;48.594;10.202;2022-07-23T06:02:51;11.63;;;7.30;;
73158;SDS011;61370;48.594;10.202;2022-07-23T06:05:18;10.13;;;6.53;;
73158;SDS011;61370;48.594;10.202;2022-07-23T06:07:46;10.80;;;5.90;;
73158;SDS011;61370;48.594;10.202;2022-07-23T06:10:14;11.18;;;6.00;;
73158;SDS011;61370;48.594;10.202;2022-07-23T06:12:40;9.20;;;6.20;;
73158;SDS011;61370;48.594;10.202;2022-07-23T06:15:07;9.45;;;6.13;;
73158;SDS011;61370;48.594;10.202;2022-07-23T06:17:34;7.43;;;5.60;;
73158;SDS011;61370;48.594;10.202;2022-07-23T06:20:02;8.60;;;5.68;;
73158;SDS011;61370;48.594;10.202;2022-07-23T06:22:29;8.65;;;5.40;;
73158;SDS011;61370;48.594;10.202;2022-07-23T06:24:56;8.30;;;5.15;;
73158;SDS011;61370;48.594;10.202;2022-07-23T06:27:22;8.55;;;5.80;;
73158;SDS011;61370;48.594;10.202;2022-07-23T06:29:49;7.38;;;5.47;;
73158;SDS011;61370;48.594;10.202;2022-07-23T06:32:16;8.00;;;5.22;;
73158;SDS011;61370;48.594;10.202;2022-07-23T06:34:43;9.25;;;5.78;;
73158;SDS011;61370;48.594;10.202;2022-07-23T06:37:09;7.70;;;5.50;;
73158;SDS011;61370;48.594;10.202;2022-07-23T06:39:36;6.88;;;4.95;;
73158;SDS011;61370;48.594;10.202;2022-07-23T06:42:03;8.57;;;5.25;;
73158;SDS011;61370;48.594;10.202;2022-07-23T06:44:39;8.07;;;5.18;;
73158;SDS011;61370;48.594;10.202;2022-07-23T06:47:07;7.10;;;5.47;;
73158;SDS011;61370;48.594;10.202;2022-07-23T06:49:35;8.75;;;5.38;;
73158;SDS011;61370;48.594;10.202;2022-07-23T06:52:02;7.20;;;5.18;;
73158;SDS011;61370;48.594;10.202;2022-07-23T06:54:28;8.25;;;5.63;;
73158;SDS011;61370;48.594;10.202;2022-07-23T06:56:55;7.55;;;5.10;;
73158;SDS011;61370;48.594;10.202;2022-07-23T06:59:22;7.60;;;5.20;;
73158;SDS011;61370;48.594;10.202;2022-07-23T07:01:48;7.03;;;4.88;;
73158;SDS011;61370;48.594;10.202;2022-07-23T07:04:15;8.95;;;4.85;;
73158;SDS011;61370;48.594;10.202;2022-07-23T07:06:41;6.60;;;4.90;;
73158;SDS011;61370;48.594;10.202;2022-07-23T07:09:08;7.22;;;4.78;;
73158;SDS011;61370;48.594;10.202;2022-07-23T07:11:34;7.15;;;4.57;;
73158;SDS011;61370;48.594;10.202;2022-07-23T07:14:01;7.47;;;4.90;;
73158;SDS011;61370;48.594;10.202;2022-07-23T07:16:27;6.75;;;4.47;;
73158;SDS011;61370;48.594;10.202;2022-07-23T07:18:53;6.65;;;4.38;;
73158;SDS011;61370;48.594;10.202;2022-07-23T07:21:21;7.07;;;4.85;;
73158;SDS011;61370;48.594;10.202;2022-07-23T07:23:48;6.55;;;4.32;;
73158;SDS011;61370;48.594;10.202;2022-07-23T07:26:14;5.10;;;4.35;;
73158;SDS011;61370;48.594;10.202;2022-07-23T07:28:41;8.52;;;4.70;;
73158;SDS011;61370;48.594;10.202;2022-07-23T07:31:07;6.63;;;4.47;;
73158;SDS011;61370;48.594;10.202;2022-07-23T07:33:34;7.78;;;4.85;;
73158;SDS011;61370;48.594;10.202;2022-07-23T07:36:01;7.82;;;4.68;;
73158;SDS011;61370;48.594;10.202;2022-07-23T07:41:25;7.03;;;4.50;;
73158;SDS011;61370;48.594;10.202;2022-07-23T07:43:53;6.03;;;4.43;;
73158;SDS011;61370;48.594;10.202;2022-07-23T07:49:12;5.47;;;4.53;;
73158;SDS011;61370;48.594;10.202;2022-07-23T07:51:39;6.78;;;4.55;;
73158;SDS011;61370;48.594;10.202;2022-07-23T07:56:58;6.13;;;4.35;;
73158;SDS011;61370;48.594;10.202;2022-07-23T07:59:27;8.52;;;5.32;;
73158;SDS011;61370;48.594;10.202;2022-07-23T08:01:57;6.85;;;4.95;;
73158;SDS011;61370;48.594;10.202;2022-07-23T08:10:11;5.90;;;4.70;;
73158;SDS011;61370;48.594;10.202;2022-07-23T08:12:49;6.78;;;4.82;;
73158;SDS011;61370;48.594;10.202;2022-07-23T08:15:18;6.75;;;4.60;;
73158;SDS011;61370;48.594;10.202;2022-07-23T08:17:46;7.00;;;4.55;;
73158;SDS011;61370;48.594;10.202;2022-07-23T08:20:14;6.53;;;5.00;;
73158;SDS011;61370;48.594;10.202;2022-07-23T08:22:55;5.75;;;4.53;;
73158;SDS011;61370;48.594;10.202;2022-07-23T08:25:28;7.25;;;4.53;;
73158;SDS011;61370;48.594;10.202;2022-07-23T08:28:01;7.53;;;5.43;;
73158;SDS011;61370;48.594;10.202;2022-07-23T08:30:28;6.95;;;5.00;;
73158;SDS011;61370;48.594;10.202;2022-07-23T08:32:56;6.30;;;4.78;;
73158;SDS011;61370;48.594;10.202;2022-07-23T08:35:28;5.35;;;4.65;;
73158;SDS011;61370;48.594;10.202;2022-07-23T08:37:56;6.50;;;4.65;;
73158;SDS011;61370;48.594;10.202;2022-07-23T08:40:23;7.00;;;5.00;;
73158;SDS011;61370;48.594;10.202;2022-07-23T08:42:53;5.60;;;5.00;;
73158;SDS011;61370;48.594;10.202;2022-07-23T08:45:24;6.47;;;4.82;;
73158;SDS011;61370;48.594;10.202;2022-07-23T08:47:56;7.03;;;4.80;;
73158;SDS011;61370;48.594;10.202;2022-07-23T08:50:26;6.45;;;5.32;;
73158;SDS011;61370;48.594;10.202;2022-07-23T08:52:53;6.20;;;4.75;;
73158;SDS011;61370;48.594;10.202;2022-07-23T08:55:22;6.03;;;4.70;;
73158;SDS011;61370;48.594;10.202;2022-07-23T08:57:57;5.95;;;4.70;;
73158;SDS011;61370;48.594;10.202;2022-07-23T09:00:24;5.60;;;5.00;;
73158;SDS011;61370;48.594;10.202;2022-07-23T09:02:50;6.35;;;4.82;;
73158;SDS011;61370;48.594;10.202;2022-07-23T09:05:17;6.80;;;4.60;;
73158;SDS011;61370;48.594;10.202;2022-07-23T09:19:05;5.60;;;4.57;;
73158;SDS011;61370;48.594;10.202;2022-07-23T09:21:31;6.32;;;4.40;;
73158;SDS011;61370;48.594;10.202;2022-07-23T09:24:05;7.13;;;5.03;;
73158;SDS011;61370;48.594;10.202;2022-07-23T09:31:45;6.28;;;4.63;;
73158;SDS011;61370;48.594;10.202;2022-07-23T09:36:47;5.70;;;4.55;;
73158;SDS011;61370;48.594;10.202;2022-07-23T09:39:15;6.80;;;5.10;;
73158;SDS011;61370;48.594;10.202;2022-07-23T09:41:44;7.43;;;5.35;;
73158;SDS011;61370;48.594;10.202;2022-07-23T09:44:16;6.70;;;4.65;;
73158;SDS011;61370;48.594;10.202;2022-07-23T09:46:44;8.27;;;5.43;;
73158;SDS011;61370;48.594;10.202;2022-07-23T09:49:13;8.23;;;5.20;;
73158;SDS011;61370;48.594;10.202;2022-07-23T09:51:44;6.32;;;5.00;;
73158;SDS011;61370;48.594;10.202;2022-07-23T09:54:28;7.30;;;5.20;;
73158;SDS011;61370;48.594;10.202;2022-07-23T09:57:07;7.28;;;5.20;;
73158;SDS011;61370;48.594;10.202;2022-07-23T09:59:38;7.32;;;5.25;;
73158;SDS011;61370;48.594;10.202;2022-07-23T10:02:06;7.63;;;5.55;;
73158;SDS011;61370;48.594;10.202;2022-07-23T10:04:44;8.00;;;5.40;;
73158;SDS011;61370;48.594;10.202;2022-07-23T10:07:25;6.40;;;5.43;;
73158;SDS011;61370;48.594;10.202;2022-07-23T10:10:11;6.32;;;5.30;;
73158;SDS011;61370;48.594;10.202;2022-07-23T10:12:58;6.72;;;5.82;;
73158;SDS011;61370;48.594;10.202;2022-07-23T10:15:44;7.13;;;4.95;;
73158;SDS011;61370;48.594;10.202;2022-07-23T10:18:10;6.55;;;5.82;;
73158;SDS011;61370;48.594;10.202;2022-07-23T10:20:38;8.10;;;5.47;;
73158;SDS011;61370;48.594;10.202;2022-07-23T10:36:51;7.38;;;5.30;;
73158;SDS011;61370;48.594;10.202;2022-07-23T10:39:28;6.75;;;5.22;;
73158;SDS011;61370;48.594;10.202;2022-07-23T10:42:13;8.07;;;5.80;;
73158;SDS011;61370;48.594;10.202;2022-07-23T10:44:46;10.52;;;5.35;;
73158;SDS011;61370;48.594;10.202;2022-07-23T10:47:27;6.63;;;5.20;;
73158;SDS011;61370;48.594;10.202;2022-07-23T10:58:00;12.73;;;6.50;;
73158;SDS011;61370;48.594;10.202;2022-07-23T11:00:28;9.57;;;6.75;;
73158;SDS011;61370;48.594;10.202;2022-07-23T11:03:00;8.23;;;6.53;;
73158;SDS011;61370;48.594;10.202;2022-07-23T11:10:47;10.40;;;6.28;;
73158;SDS011;61370;48.594;10.202;2022-07-23T11:26:55;7.68;;;5.88;;
73158;SDS011;61370;48.594;10.202;2022-07-23T11:31:53;6.47;;;5.22;;
73158;SDS011;61370;48.594;10.202;2022-07-23T11:34:30;7.40;;;6.00;;
73158;SDS011;61370;48.594;10.202;2022-07-23T11:37:05;6.90;;;5.72;;
73158;SDS011;61370;48.594;10.202;2022-07-23T11:39:34;8.77;;;6.15;;
73158;SDS011;61370;48.594;10.202;2022-07-23T11:42:02;9.77;;;5.57;;
73158;SDS011;61370;48.594;10.202;2022-07-23T11:44:37;7.90;;;6.32;;
73158;SDS011;61370;48.594;10.202;2022-07-23T11:47:05;10.30;;;6.10;;
73158;SDS011;61370;48.594;10.202;2022-07-23T11:49:33;6.93;;;5.68;;
73158;SDS011;61370;48.594;10.202;2022-07-23T11:52:04;6.90;;;5.63;;
73158;SDS011;61370;48.594;10.202;2022-07-23T11:54:36;8.45;;;5.70;;
73158;SDS011;61370;48.594;10.202;2022-07-23T11:57:03;6.55;;;5.53;;
73158;SDS011;61370;48.594;10.202;2022-07-23T11:59:31;7.28;;;5.53;;
73158;SDS011;61370;48.594;10.202;2022-07-23T12:01:59;7.90;;;6.30;;
73158;SDS011;61370;48.594;10.202;2022-07-23T12:04:44;8.75;;;6.20;;
73158;SDS011;61370;48.594;10.202;2022-07-23T12:10:08;8.25;;;6.45;;
73158;SDS011;61370;48.594;10.202;2022-07-23T12:12:50;10.32;;;6.68;;
73158;SDS011;61370;48.594;10.202;2022-07-23T12:15:20;8.50;;;6.40;;
73158;SDS011;61370;48.594;10.202;2022-07-23T12:17:51;7.82;;;5.95;;
73158;SDS011;61370;48.594;10.202;2022-07-23T12:26:13;8.35;;;6.10;;
73158;SDS011;61370;48.594;10.202;2022-07-23T12:28:41;6.60;;;5.70;;
73158;SDS011;61370;48.594;10.202;2022-07-23T12:31:09;7.00;;;5.72;;
73158;SDS011;61370;48.594;10.202;2022-07-23T12:33:39;8.43;;;6.47;;
73158;SDS011;61370;48.594;10.202;2022-07-23T12:36:07;7.72;;;5.93;;
73158;SDS011;61370;48.594;10.202;2022-07-23T12:38:42;7.05;;;5.53;;
73158;SDS011;61370;48.594;10.202;2022-07-23T12:41:10;7.60;;;5.57;;
73158;SDS011;61370;48.594;10.202;2022-07-23T12:43:38;6.22;;;5.28;;
73158;SDS011;61370;48.594;10.202;2022-07-23T12:53:43;6.47;;;5.25;;
73158;SDS011;61370;48.594;10.202;2022-07-23T12:56:27;7.47;;;5.32;;
73158;SDS011;61370;48.594;10.202;2022-07-23T12:59:01;7.00;;;5.32;;
73158;SDS011;61370;48.594;10.202;2022-07-23T13:01:36;7.47;;;5.63;;
73158;SDS011;61370;48.594;10.202;2022-07-23T13:04:13;7.22;;;5.65;;
73158;SDS011;61370;48.594;10.202;2022-07-23T13:06:45;7.28;;;5.75;;
73158;SDS011;61370;48.594;10.202;2022-07-23T13:09:17;7.18;;;5.97;;
73158;SDS011;61370;48.594;10.202;2022-07-23T13:11:45;6.43;;;5.10;;
73158;SDS011;61370;48.594;10.202;2022-07-23T13:14:13;6.63;;;5.10;;
73158;SDS011;61370;48.594;10.202;2022-07-23T13:16:42;8.63;;;5.35;;
73158;SDS011;61370;48.594;10.202;2022-07-23T13:19:09;8.63;;;5.68;;
73158;SDS011;61370;48.594;10.202;2022-07-23T13:21:35;7.38;;;5.82;;
73158;SDS011;61370;48.594;10.202;2022-07-23T13:24:02;6.90;;;5.28;;
73158;SDS011;61370;48.594;10.202;2022-07-23T13:26:28;7.75;;;6.28;;
73158;SDS011;61370;48.594;10.202;2022-07-23T13:28:55;7.05;;;5.50;;
73158;SDS011;61370;48.594;10.202;2022-07-23T13:31:22;7.28;;;5.38;;
73158;SDS011;61370;48.594;10.202;2022-07-23T13:33:49;6.75;;;5.60;;
73158;SDS011;61370;48.594;10.202;2022-07-23T13:36:15;6.60;;;5.32;;
73158;SDS011;61370;48.594;10.202;2022-07-23T13:38:42;6.63;;;5.68;;
73158;SDS011;61370;48.594;10.202;2022-07-23T13:41:10;7.18;;;5.80;;
73158;SDS011;61370;48.594;10.202;2022-07-23T13:43:36;8.73;;;6.43;;
73158;SDS011;61370;48.594;10.202;2022-07-23T13:46:03;7.65;;;6.20;;
73158;SDS011;61370;48.594;10.202;2022-07-23T13:48:29;7.25;;;5.43;;
73158;SDS011;61370;48.594;10.202;2022-07-23T13:50:56;9.27;;;5.80;;
73158;SDS011;61370;48.594;10.202;2022-07-23T13:53:23;7.10;;;5.38;;
73158;SDS011;61370;48.594;10.202;2022-07-23T13:55:52;6.47;;;5.18;;
73158;SDS011;61370;48.594;10.202;2022-07-23T14:00:47;6.32;;;4.82;;
73158;SDS011;61370;48.594;10.202;2022-07-23T14:03:15;6.68;;;5.47;;
73158;SDS011;61370;48.594;10.202;2022-07-23T14:05:43;6.28;;;5.15;;
73158;SDS011;61370;48.594;10.202;2022-07-23T14:08:10;6.32;;;5.30;;
73158;SDS011;61370;48.594;10.202;2022-07-23T14:10:36;8.20;;;5.28;;
73158;SDS011;61370;48.594;10.202;2022-07-23T14:13:03;8.07;;;5.30;;
73158;SDS011;61370;48.594;10.202;2022-07-23T14:15:30;7.88;;;5.97;;
73158;SDS011;61370;48.594;10.202;2022-07-23T14:17:57;7.57;;;5.35;;
73158;SDS011;61370;48.594;10.202;2022-07-23T14:20:24;6.78;;;5.18;;
73158;SDS011;61370;48.594;10.202;2022-07-23T14:22:51;6.20;;;5.25;;
73158;SDS011;61370;48.594;10.202;2022-07-23T14:25:18;6.93;;;6.05;;
73158;SDS011;61370;48.594;10.202;2022-07-23T14:27:44;8.60;;;5.45;;
73158;SDS011;61370;48.594;10.202;2022-07-23T14:30:11;6.57;;;4.97;;
73158;SDS011;61370;48.594;10.202;2022-07-23T14:32:38;7.95;;;5.10;;
73158;SDS011;61370;48.594;10.202;2022-07-23T14:35:05;6.45;;;5.07;;
73158;SDS011;61370;48.594;10.202;2022-07-23T14:37:33;6.47;;;4.53;;
73158;SDS011;61370;48.594;10.202;2022-07-23T14:39:59;7.63;;;5.03;;
73158;SDS011;61370;48.594;10.202;2022-07-23T14:42:26;6.72;;;5.03;;
73158;SDS011;61370;48.594;10.202;2022-07-23T14:44:53;6.72;;;5.50;;
73158;SDS011;61370;48.594;10.202;2022-07-23T14:47:20;6.20;;;4.80;;
73158;SDS011;61370;48.594;10.202;2022-07-23T14:49:46;6.65;;;5.00;;
73158;SDS011;61370;48.594;10.202;2022-07-23T14:52:13;6.22;;;4.40;;
73158;SDS011;61370;48.594;10.202;2022-07-23T14:54:39;6.75;;;4.88;;
73158;SDS011;61370;48.594;10.202;2022-07-23T14:57:05;6.35;;;4.57;;
73158;SDS011;61370;48.594;10.202;2022-07-23T14:59:34;6.30;;;4.97;;
73158;SDS011;61370;48.594;10.202;2022-07-23T15:02:01;7.38;;;5.05;;
73158;SDS011;61370;48.594;10.202;2022-07-23T15:04:27;6.32;;;4.85;;
73158;SDS011;61370;48.594;10.202;2022-07-23T15:06:54;5.88;;;4.40;;
73158;SDS011;61370;48.594;10.202;2022-07-23T15:09:20;7.13;;;4.88;;
73158;SDS011;61370;48.594;10.202;2022-07-23T15:11:47;7.32;;;4.93;;
73158;SDS011;61370;48.594;10.202;2022-07-23T15:14:13;5.88;;;4.65;;
73158;SDS011;61370;48.594;10.202;2022-07-23T15:16:40;6.07;;;4.22;;
73158;SDS011;61370;48.594;10.202;2022-07-23T15:19:06;6.25;;;5.10;;
73158;SDS011;61370;48.594;10.202;2022-07-23T15:21:33;6.85;;;4.90;;
73158;SDS011;61370;48.594;10.202;2022-07-23T15:23:59;5.72;;;4.70;;
73158;SDS011;61370;48.594;10.202;2022-07-23T15:26:26;7.28;;;4.90;;
73158;SDS011;61370;48.594;10.202;2022-07-23T15:28:53;7.32;;;4.88;;
73158;SDS011;61370;48.594;10.202;2022-07-23T15:31:20;7.18;;;5.38;;
73158;SDS011;61370;48.594;10.202;2022-07-23T15:33:47;6.25;;;5.18;;
73158;SDS011;61370;48.594;10.202;2022-07-23T15:36:16;6.47;;;4.97;;
73158;SDS011;61370;48.594;10.202;2022-07-23T15:38:43;7.03;;;4.78;;
73158;SDS011;61370;48.594;10.202;2022-07-23T15:41:10;7.00;;;4.75;;
73158;SDS011;61370;48.594;10.202;2022-07-23T15:43:36;5.95;;;4.68;;
73158;SDS011;61370;48.594;10.202;2022-07-23T15:46:04;5.72;;;4.63;;
73158;SDS011;61370;48.594;10.202;2022-07-23T15:48:31;8.00;;;5.13;;
73158;SDS011;61370;48.594;10.202;2022-07-23T15:50:57;8.20;;;5.13;;
73158;SDS011;61370;48.594;10.202;2022-07-23T15:53:24;7.95;;;5.03;;
73158;SDS011;61370;48.594;10.202;2022-07-23T15:55:50;6.47;;;4.93;;
73158;SDS011;61370;48.594;10.202;2022-07-23T15:58:17;6.30;;;4.72;;
73158;SDS011;61370;48.594;10.202;2022-07-23T16:00:43;6.25;;;4.80;;
73158;SDS011;61370;48.594;10.202;2022-07-23T16:03:09;7.43;;;5.18;;
73158;SDS011;61370;48.594;10.202;2022-07-23T16:05:36;8.38;;;5.18;;
73158;SDS011;61370;48.594;10.202;2022-07-23T16:08:03;5.82;;;4.82;;
73158;SDS011;61370;48.594;10.202;2022-07-23T16:10:30;7.20;;;4.88;;
73158;SDS011;61370;48.594;10.202;2022-07-23T16:12:56;5.72;;;4.90;;